»·PEaware :: N6050A KVNY-KHND

N6050A :: KVNY-KHND

FLIGHT INFORMATION

Flight Status: Arrived
Operator: Privately registered:
United States
More flights under this callsign
Pilot: Winter H. (27850)
Aircraft: ECLIPSE 500
(EA50)
More flights by this aircraft type
Origin: KVNY Van Nuys
United States
Destination: KHND Henderson
United States
More flights between these airports :: More routes between these airports
Route: +
File this flight plan on PilotEdge
Remarks:
Altitude:
(Current/Filed)
0ft
Speed:
(Current/Filed)
0kts
Departed: 30-Sep-20 09:28 PM
Arrived: 30-Sep-20 10:16 PM
Distance/Time
Traveled:
195nm/0:48
Distance/Time
To Go:
Arrived

Flight Plot

Page will automatically refresh every two minutes.

Flight plan parsing failed; only flown route is shown


Map Options




Map Legend


Flown Route
Filed Route
Departure Airport
Arrival Airport
Navaid (VOR, NDB)
Fix

Horizontal Profiles

Position Reports

Time Latitude Longitude Heading Altitude Ground
Speed
30-Sep-20 21:14 34.207412 -118.487487 271 772ft 0kts
30-Sep-20 21:15 34.207412 -118.487487 271 772ft 0kts
30-Sep-20 21:16 34.207412 -118.487487 271 772ft 0kts
30-Sep-20 21:17 34.207412 -118.487487 271 772ft 0kts
30-Sep-20 21:18 34.207412 -118.487487 271 772ft 0kts
30-Sep-20 21:19 34.207412 -118.487487 271 772ft 0kts
30-Sep-20 21:20 34.207412 -118.487496 271 772ft 0kts
30-Sep-20 21:21 34.208367 -118.488149 350 773ft 8kts
30-Sep-20 21:22 34.210994 -118.488427 354 779ft 9kts
30-Sep-20 21:23 34.213885 -118.488702 355 785ft 9kts
30-Sep-20 21:24 34.216501 -118.489135 349 790ft 8kts
30-Sep-20 21:25 34.218391 -118.489421 355 793ft 3kts
30-Sep-20 21:26 34.218469 -118.489429 355 793ft 0kts
30-Sep-20 21:27 34.218916 -118.490087 267 794ft 7kts
30-Sep-20 21:28 34.207677 -118.490212 177 888ft 120kts
30-Sep-20 21:29 34.179377 -118.455366 122 2569ft 187kts
30-Sep-20 21:30 34.154550 -118.400547 122 4843ft 200kts
30-Sep-20 21:30 34.129314 -118.354757 81 6603ft 202kts
30-Sep-20 21:32 34.185287 -118.343571 352 8846ft 205kts
30-Sep-20 21:32 34.232635 -118.339610 11 10315ft 210kts
30-Sep-20 21:33 34.291108 -118.327460 11 11722ft 226kts
30-Sep-20 21:35 34.366618 -118.307476 23 12866ft 243kts
30-Sep-20 21:35 34.416110 -118.273926 35 14225ft 248kts
30-Sep-20 21:36 34.473779 -118.221757 39 15439ft 288kts
30-Sep-20 21:37 34.542474 -118.153795 40 15472ft 343kts
30-Sep-20 21:38 34.616334 -118.078906 41 15527ft 325kts
30-Sep-20 21:39 34.641123 -117.975409 82 15529ft 334kts
30-Sep-20 21:40 34.653331 -117.863289 82 15515ft 340kts
30-Sep-20 21:41 34.665821 -117.747646 82 15602ft 341kts
30-Sep-20 21:42 34.678027 -117.633613 82 15790ft 339kts
30-Sep-20 21:43 34.690085 -117.519911 82 15940ft 340kts
30-Sep-20 21:44 34.697502 -117.449459 82 16002ft 341kts
30-Sep-20 21:45 34.709320 -117.336265 82 15783ft 337kts
30-Sep-20 21:46 34.719559 -117.237577 82 15545ft 270kts
30-Sep-20 21:47 34.729587 -117.140106 82 15545ft 308kts
30-Sep-20 21:48 34.740478 -117.033230 82 15587ft 318kts
30-Sep-20 21:49 34.751369 -116.925443 82 15554ft 325kts
30-Sep-20 21:50 34.762292 -116.816382 82 15537ft 326kts
30-Sep-20 21:51 34.772999 -116.708496 82 15537ft 326kts
30-Sep-20 21:52 34.783723 -116.599423 82 15536ft 326kts
30-Sep-20 21:53 34.801371 -116.493627 50 15527ft 326kts
30-Sep-20 21:54 34.873964 -116.428359 40 15543ft 325kts
30-Sep-20 21:55 34.940598 -116.355320 42 15563ft 325kts
30-Sep-20 21:56 35.001813 -116.284862 43 15580ft 326kts
30-Sep-20 21:57 35.067745 -116.208183 43 15582ft 328kts
30-Sep-20 21:58 35.133356 -116.131564 43 15584ft 328kts
30-Sep-20 21:59 35.197624 -116.056306 43 15584ft 328kts
30-Sep-20 22:00 35.263930 -115.978473 43 15583ft 327kts
30-Sep-20 22:01 35.329469 -115.901357 43 15584ft 327kts
30-Sep-20 22:02 35.395422 -115.823569 43 15586ft 328kts
30-Sep-20 22:03 35.460432 -115.746711 43 15589ft 328kts
30-Sep-20 22:04 35.526076 -115.668919 43 15343ft 333kts
30-Sep-20 22:05 35.590763 -115.592076 43 14040ft 320kts
30-Sep-20 22:06 35.653682 -115.517160 43 12746ft 315kts
30-Sep-20 22:07 35.715311 -115.443624 43 11452ft 309kts
30-Sep-20 22:08 35.772843 -115.374833 43 10157ft 260kts
30-Sep-20 22:09 35.820217 -115.318069 44 8970ft 274kts
30-Sep-20 22:10 35.871370 -115.256664 45 7737ft 270kts
30-Sep-20 22:11 35.920266 -115.193972 50 6075ft 236kts
30-Sep-20 22:12 35.960680 -115.143397 45 4191ft 218kts
30-Sep-20 22:13 36.006075 -115.133308 277 3344ft 180kts
30-Sep-20 22:14 35.975213 -115.135485 177 2456ft 130kts
30-Sep-20 22:15 35.960910 -115.136158 236 2500ft 0kts

Navigation Log

Ident Type
Flight plan parsing failed, navigation log unavailable